Cankton, Louisiana
Current Conditions -  °F | °C
As of 1:55 AM on Sunday 26 Oct 2014 (Local Time) from KOPL Reporting Station
Clear Clear  
Wind Chill: 53°   Ceiling: Unl
Heat Index: 53°   Visibility: 10mi
Dew Point: 52°   Wind: 0mph
Humidity: 98%   Direction: NA
Pressure: 30.07"   Gusts: NA
Location:  30.3753°N, 92.0944°W
Report Text: KOPL 260655Z AUTO 00000KT 10SM CLR 12/11 A3007 RMK AO2 T01160113
Loading
Personal Weather Stations






























Interactive Weather Map
Tropical Storm Tracking
New forecast layout! Learn more

10-Day Weather Forecast

Advertisements
Track Severe Weather on mobile